createdAt,value
2022-12-09T04:58:59.304Z,99930.44
2022-12-09T05:02:03.036Z,99930.44
2022-12-09T05:05:06.094Z,99945.41
2022-12-09T05:08:09.764Z,99937.44
2022-12-09T05:11:14.177Z,99928.81
2022-12-09T05:14:17.016Z,99920.50
2022-12-09T05:17:19.749Z,99917.19
2022-12-09T05:20:22.582Z,99926.63
2022-12-09T05:23:25.487Z,99931.78
2022-12-09T05:26:28.330Z,99931.63
2022-12-09T05:29:31.017Z,99929.09
2022-12-09T05:32:33.705Z,99925.22
2022-12-09T05:35:43.672Z,99917.56
2022-12-09T05:38:54.063Z,99927.09
2022-12-09T05:41:56.531Z,99920.16
2022-12-09T05:45:00.429Z,99923.56
2022-12-09T05:48:03.134Z,99916.63
2022-12-09T05:51:10.465Z,99912.25
2022-12-09T05:54:13.027Z,99907.16
2022-12-09T05:57:15.881Z,99907.16
2022-12-09T06:00:19.313Z,99898.84
2022-12-09T06:03:23.156Z,99900.41
2022-12-09T06:06:28.111Z,99899.34
2022-12-09T06:09:32.258Z,99897.78
2022-12-09T06:12:35.071Z,99897.06
2022-12-09T06:15:38.078Z,99893.00
2022-12-09T06:18:40.963Z,99899.09
2022-12-09T06:21:43.814Z,99896.19
2022-12-09T06:24:46.230Z,99899.53
2022-12-09T06:27:49.783Z,99893.56
2022-12-09T06:30:52.407Z,99892.41
2022-12-09T06:33:57.576Z,99889.69
2022-12-09T06:37:00.862Z,99888.53
2022-12-09T06:40:04.567Z,99895.50
2022-12-09T06:43:07.501Z,99903.16
2022-12-09T06:46:19.654Z,99891.06
2022-12-09T06:49:22.316Z,99891.56
2022-12-09T06:52:25.325Z,99897.66
2022-12-09T06:55:28.094Z,99893.13
2022-12-09T06:58:31.600Z,99888.66
2022-12-09T07:01:34.425Z,99895.59
2022-12-09T07:04:37.761Z,99891.34
2022-12-09T07:07:45.096Z,99882.75
2022-12-09T07:10:53.112Z,99890.88
2022-12-09T07:13:58.962Z,99881.50
2022-12-09T07:17:01.763Z,99882.06
2022-12-09T07:20:07.536Z,99881.09
2022-12-09T07:23:11.512Z,99880.34
2022-12-09T07:26:14.955Z,99879.00
2022-12-09T07:29:18.888Z,99883.03
2022-12-09T07:32:22.184Z,99879.44
2022-12-09T07:35:25.052Z,99884.44
2022-12-09T07:38:27.843Z,99878.91
2022-12-09T07:41:31.078Z,99879.50
2022-12-09T07:44:33.818Z,99878.91
2022-12-09T07:47:36.721Z,99875.41
2022-12-09T07:50:40.768Z,99870.41
2022-12-09T07:53:43.835Z,99872.28
2022-12-09T07:56:46.947Z,99877.34
2022-12-09T07:59:49.943Z,99873.13
2022-12-09T08:02:53.859Z,99873.44
2022-12-09T08:05:56.723Z,99868.12
2022-12-09T08:09:03.593Z,99877.50
2022-12-09T08:12:07.640Z,99865.31
2022-12-09T08:15:10.872Z,99867.59
2022-12-09T08:18:14.455Z,99854.72
2022-12-09T08:21:21.256Z,99859.66
2022-12-09T08:24:24.221Z,99846.81
2022-12-09T08:27:26.814Z,99851.38
2022-12-09T08:30:29.711Z,99850.47
2022-12-09T08:33:34.669Z,99852.06
2022-12-09T08:36:38.601Z,99848.13
2022-12-09T08:39:41.269Z,99839.25
2022-12-09T08:42:44.126Z,99838.63
2022-12-09T08:45:48.507Z,99835.88
2022-12-09T08:48:52.018Z,99830.22
2022-12-09T08:51:54.723Z,99831.19
2022-12-09T08:54:57.971Z,99830.03
2022-12-09T08:58:00.752Z,99823.97
2022-12-09T09:01:04.800Z,99813.50
2022-12-09T09:04:10.937Z,99805.75
2022-12-09T09:07:14.199Z,99808.56
2022-12-09T09:10:17.823Z,99806.09
2022-12-09T09:13:21.310Z,99805.13
2022-12-09T09:16:26.478Z,99792.09
2022-12-09T09:19:29.575Z,99791.03
2022-12-09T09:22:32.060Z,99791.91
2022-12-09T09:25:35.283Z,99792.03
2022-12-09T09:28:38.583Z,99788.59
2022-12-09T09:31:42.076Z,99786.00
2022-12-09T09:34:45.967Z,99783.53
2022-12-09T09:37:48.918Z,99771.16
2022-12-09T09:40:52.699Z,99772.37
2022-12-09T09:43:56.681Z,99775.34
2022-12-09T09:47:01.293Z,99758.13
2022-12-09T09:50:18.062Z,99765.37
2022-12-09T09:53:30.879Z,99759.69
2022-12-09T09:56:45.777Z,99761.16
2022-12-09T10:00:28.859Z,99755.28
2022-12-09T10:04:00.264Z,99737.56
2022-12-09T10:07:16.058Z,99736.75
2022-12-09T10:10:47.416Z,99729.19
2022-12-09T10:14:17.367Z,99720.44
2022-12-09T10:17:36.291Z,99710.75
2022-12-09T10:20:40.765Z,99709.94
2022-12-09T10:23:45.177Z,99682.41
2022-12-09T10:27:14.657Z,99679.84
2022-12-09T10:30:19.079Z,99683.13
2022-12-09T10:33:28.454Z,99666.44
2022-12-09T10:36:36.067Z,99640.81
2022-12-09T10:39:40.170Z,99653.31
2022-12-09T10:43:08.069Z,99632.69
2022-12-09T10:46:19.966Z,99621.03
2022-12-09T10:49:23.728Z,99618.41
2022-12-09T10:52:31.717Z,99603.44
2022-12-09T10:55:38.287Z,99602.31
2022-12-09T10:58:40.892Z,99592.16
2022-12-09T11:02:08.960Z,99590.03
2022-12-09T11:05:22.024Z,99583.03
2022-12-09T11:08:26.072Z,99588.41
2022-12-09T11:11:47.210Z,99577.19
2022-12-09T11:14:56.216Z,99566.06
2022-12-09T11:18:03.601Z,99559.66
2022-12-09T11:21:12.827Z,99556.16
2022-12-09T11:24:24.918Z,99548.25
2022-12-09T11:27:32.592Z,99536.06
2022-12-09T11:30:47.175Z,99545.22
2022-12-09T11:34:04.862Z,99553.75
2022-12-09T11:37:11.168Z,99547.62
2022-12-09T11:40:18.385Z,99547.72
2022-12-09T11:43:20.827Z,99550.19
2022-12-09T11:46:30.082Z,99540.59
2022-12-09T11:49:43.229Z,99545.00
2022-12-09T11:52:46.908Z,99540.03
2022-12-09T11:56:00.828Z,99528.75
2022-12-09T11:59:16.442Z,99520.84
2022-12-09T12:02:34.689Z,99529.84
2022-12-09T12:05:42.119Z,99521.84
2022-12-09T12:09:29.609Z,99519.69
2022-12-09T12:12:52.562Z,99497.53
2022-12-09T12:16:10.242Z,99494.81
2022-12-09T12:19:35.307Z,99502.06
2022-12-09T12:22:54.532Z,99501.69
2022-12-09T12:26:21.107Z,99507.31
2022-12-09T12:29:35.644Z,99496.78
2022-12-09T12:33:11.808Z,99500.44
2022-12-09T12:36:39.766Z,99475.13
2022-12-09T12:40:04.231Z,99474.03
2022-12-09T12:43:42.737Z,99473.66
2022-12-09T12:47:06.796Z,99473.66
2022-12-09T12:50:32.134Z,99470.22
2022-12-09T12:53:48.713Z,99473.25
2022-12-09T12:57:09.655Z,99465.63
2022-12-09T13:00:24.526Z,99477.75
2022-12-09T13:04:07.204Z,99459.31
2022-12-09T13:07:20.033Z,99456.22
2022-12-09T13:10:39.712Z,99455.22
2022-12-09T13:13:48.424Z,99449.84
2022-12-09T13:16:52.694Z,99448.19
2022-12-09T13:20:00.716Z,99437.41
2022-12-09T13:23:11.094Z,99438.13
2022-12-09T13:26:26.889Z,99433.62
2022-12-09T13:29:43.802Z,99449.44
2022-12-09T13:33:16.567Z,99453.44
2022-12-09T13:36:46.803Z,99443.00
2022-12-09T13:39:49.403Z,99444.84
2022-12-09T13:43:01.614Z,99431.28
2022-12-09T13:46:04.695Z,99416.75
2022-12-09T13:49:26.740Z,99426.53
2022-12-09T13:52:52.017Z,99429.06
2022-12-09T13:56:01.539Z,99422.44
2022-12-09T13:59:28.817Z,99425.97
2022-12-09T14:02:45.390Z,99429.19
2022-12-09T14:05:48.359Z,99423.22
2022-12-09T14:08:55.749Z,99423.22
2022-12-09T14:12:00.713Z,99421.28
2022-12-09T14:15:26.041Z,99412.94
2022-12-09T14:18:32.837Z,99406.31
2022-12-09T14:21:35.680Z,99398.34
2022-12-09T14:24:38.952Z,99392.84
2022-12-09T14:28:10.266Z,99392.72
2022-12-09T14:31:49.874Z,99391.09
2022-12-09T14:35:24.029Z,99390.19
2022-12-09T14:42:42.613Z,99374.06
2022-12-09T14:45:56.281Z,99375.09
2022-12-09T14:49:15.221Z,99365.88
2022-12-09T14:52:26.497Z,99357.97
2022-12-09T14:55:30.713Z,99355.13
2022-12-09T14:58:33.761Z,99344.75
2022-12-09T15:01:54.551Z,99325.69
2022-12-09T15:05:00.575Z,99329.25
2022-12-09T15:08:03.338Z,99326.69
2022-12-09T15:11:12.164Z,99331.84
2022-12-09T15:14:26.509Z,99328.28
2022-12-09T15:17:48.418Z,99326.03
2022-12-09T15:20:58.476Z,99328.19
2022-12-09T15:24:01.217Z,99326.38
2022-12-09T15:27:04.102Z,99323.66
2022-12-09T15:30:25.024Z,99314.53
2022-12-09T15:33:30.853Z,99310.34
2022-12-09T15:36:43.437Z,99300.81
2022-12-09T15:39:57.905Z,99295.69
2022-12-09T15:43:05.758Z,99299.87
2022-12-09T15:46:09.176Z,99295.62
2022-12-09T15:49:17.267Z,99286.94
2022-12-09T15:52:26.071Z,99282.13
2022-12-09T15:55:37.435Z,99266.88
2022-12-09T15:58:47.067Z,99261.03
2022-12-09T16:01:52.671Z,99266.16
2022-12-09T16:05:00.490Z,99255.00
2022-12-09T16:08:03.061Z,99263.78
2022-12-09T16:11:06.532Z,99250.62
2022-12-09T16:14:10.291Z,99249.84
2022-12-09T16:17:26.030Z,99239.59
2022-12-09T16:20:37.704Z,99245.69
2022-12-09T16:23:52.719Z,99232.63
2022-12-09T16:26:55.632Z,99230.19
